»·PEaware :: N333ZS KSBA-KBFL

N333ZS :: KSBA-KBFL

FLIGHT INFORMATION

Flight Status: Arrived
Operator: Privately registered:
United States
More flights under this callsign
Pilot: Judd H. (29974)
Aircraft: CESSNA 182 SKYLANE
(C182)
More flights by this aircraft type
Origin: KSBA Santa Barbara Mun
United States
Destination: KBFL Meadows
United States
More flights between these airports :: More routes between these airports
Route: +KWANG FIM GMN FASTO2 KBFL
File this flight plan on PilotEdge
Remarks:
Altitude:
(Current/Filed)
11,000ft
Speed:
(Current/Filed)
120kts
Departed: 24-Sep-20 12:45 PM
Arrived: 24-Sep-20 01:42 PM
Distance/Time
Traveled:
72nm/0:57
Distance/Time
To Go:
Arrived

Flight Plot

Page will automatically refresh every two minutes.

Flight plan parsing failed; only flown route is shown


Map Options




Map Legend


Flown Route
Filed Route
Departure Airport
Arrival Airport
Navaid (VOR, NDB)
Fix

Horizontal Profiles

Position Reports

Time Latitude Longitude Heading Altitude Ground
Speed
24-Sep-20 11:55 34.423508 -119.835828 164 13ft 0kts
24-Sep-20 11:56 34.423508 -119.835828 164 13ft 0kts
24-Sep-20 11:58 34.423508 -119.835828 164 13ft 0kts
24-Sep-20 11:59 34.423508 -119.835828 164 13ft 0kts
24-Sep-20 12:00 34.423508 -119.835828 164 13ft 0kts
24-Sep-20 12:01 34.423508 -119.835828 164 13ft 0kts
24-Sep-20 12:02 34.423508 -119.835828 164 13ft 0kts
24-Sep-20 12:03 34.423508 -119.835828 164 13ft 0kts
24-Sep-20 12:04 34.423508 -119.835828 164 13ft 0kts
24-Sep-20 12:05 34.423508 -119.835828 164 13ft 0kts
24-Sep-20 12:06 34.423508 -119.835828 164 13ft 0kts
24-Sep-20 12:07 34.423508 -119.835828 164 13ft 0kts
24-Sep-20 12:08 34.423508 -119.835828 164 13ft 0kts
24-Sep-20 12:09 34.423508 -119.835828 164 13ft 0kts
24-Sep-20 12:10 34.423508 -119.835828 164 13ft 0kts
24-Sep-20 12:11 34.423508 -119.835828 164 13ft 0kts
24-Sep-20 12:12 34.423506 -119.835827 164 13ft 0kts
24-Sep-20 12:13 34.423504 -119.835826 164 13ft 0kts
24-Sep-20 12:14 34.423503 -119.835826 164 13ft 0kts
24-Sep-20 12:14 34.423502 -119.835826 164 13ft 0kts
24-Sep-20 12:15 34.423501 -119.835825 164 13ft 0kts
24-Sep-20 12:17 34.423499 -119.835825 164 13ft 0kts
24-Sep-20 12:17 34.423498 -119.835824 164 13ft 0kts
24-Sep-20 12:18 34.423497 -119.835824 164 13ft 0kts
24-Sep-20 12:27 34.423486 -119.835820 164 13ft 0kts
24-Sep-20 12:28 34.423485 -119.835820 164 13ft 0kts
24-Sep-20 12:29 34.423484 -119.835820 164 13ft 0kts
24-Sep-20 12:30 34.423483 -119.835819 164 13ft 0kts
24-Sep-20 12:31 34.423482 -119.835819 164 13ft 0kts
24-Sep-20 12:32 34.423481 -119.835818 164 13ft 0kts
24-Sep-20 12:33 34.423479 -119.835818 164 13ft 0kts
24-Sep-20 12:34 34.423478 -119.835818 164 13ft 0kts
24-Sep-20 12:35 34.423477 -119.835817 164 13ft 0kts
24-Sep-20 12:36 34.423476 -119.835817 164 13ft 0kts
24-Sep-20 12:37 34.423696 -119.837388 344 13ft 15kts
24-Sep-20 12:38 34.427393 -119.838519 346 13ft 18kts
24-Sep-20 12:39 34.430741 -119.839770 216 13ft 0kts
24-Sep-20 12:40 34.430738 -119.839772 216 13ft 0kts
24-Sep-20 12:41 34.430737 -119.839773 216 13ft 0kts
24-Sep-20 12:42 34.430736 -119.839774 216 13ft 0kts
24-Sep-20 12:43 34.430699 -119.839810 221 13ft 7kts
24-Sep-20 12:44 34.419507 -119.836791 166 214ft 103kts
24-Sep-20 12:45 34.388829 -119.825990 166 975ft 120kts
24-Sep-20 12:46 34.356724 -119.814691 164 1727ft 120kts
24-Sep-20 12:47 34.325756 -119.799772 159 2504ft 119kts
24-Sep-20 12:48 34.295142 -119.784182 161 3232ft 117kts
24-Sep-20 12:49 34.264788 -119.769458 160 3919ft 117kts
24-Sep-20 12:50 34.246452 -119.740784 84 4516ft 128kts
24-Sep-20 12:51 34.254968 -119.698980 79 5138ft 128kts
24-Sep-20 12:52 34.262211 -119.657521 83 5754ft 126kts
24-Sep-20 12:53 34.266270 -119.615534 90 6406ft 123kts
24-Sep-20 12:54 34.269937 -119.573925 82 7016ft 126kts
24-Sep-20 12:55 34.276979 -119.532674 81 7645ft 123kts
24-Sep-20 12:56 34.284106 -119.490475 82 8009ft 135kts
24-Sep-20 12:57 34.289909 -119.446355 83 8491ft 126kts
24-Sep-20 12:58 34.295157 -119.404468 86 8993ft 123kts
24-Sep-20 12:59 34.300104 -119.364328 80 9591ft 119kts
24-Sep-20 13:00 34.307187 -119.326043 80 10198ft 116kts
24-Sep-20 13:01 34.324784 -119.295050 36 10761ft 119kts
24-Sep-20 13:02 34.354334 -119.272396 32 11029ft 135kts
24-Sep-20 13:03 34.386586 -119.246677 33 11056ft 146kts
24-Sep-20 13:04 34.420573 -119.218873 34 11035ft 146kts
24-Sep-20 13:05 34.453601 -119.190541 38 11051ft 145kts
24-Sep-20 13:06 34.485799 -119.160431 39 11049ft 147kts
24-Sep-20 13:07 34.516890 -119.127904 45 11045ft 147kts
24-Sep-20 13:08 34.545206 -119.092059 50 11053ft 147kts
24-Sep-20 13:09 34.576532 -119.060784 23 11062ft 147kts
24-Sep-20 13:10 34.613739 -119.039282 34 11081ft 148kts
24-Sep-20 13:11 34.647322 -119.009592 40 11060ft 149kts
24-Sep-20 13:12 34.678488 -118.976030 40 11060ft 149kts
24-Sep-20 13:13 34.711809 -118.945455 36 11063ft 150kts
24-Sep-20 13:14 34.745817 -118.915951 38 11060ft 150kts
24-Sep-20 13:15 34.777856 -118.883017 45 11062ft 150kts
24-Sep-20 13:16 34.813434 -118.859718 3 11159ft 147kts
24-Sep-20 13:17 34.855195 -118.859458 358 11133ft 150kts
24-Sep-20 13:18 34.897137 -118.860533 359 11129ft 151kts
24-Sep-20 13:19 34.939220 -118.859320 1 11126ft 151kts
24-Sep-20 13:20 34.981121 -118.856775 2 11137ft 150kts
24-Sep-20 13:21 35.022749 -118.851157 6 10858ft 149kts
24-Sep-20 13:22 35.062453 -118.855134 321 10391ft 141kts
24-Sep-20 13:23 35.064709 -118.881845 185 9299ft 113kts
24-Sep-20 13:24 35.032417 -118.878446 180 7919ft 115kts
24-Sep-20 13:25 35.000861 -118.872398 128 6612ft 119kts
24-Sep-20 13:26 35.020342 -118.857085 340 5659ft 114kts
24-Sep-20 13:27 35.050132 -118.863820 359 4627ft 105kts
24-Sep-20 13:28 35.078387 -118.865157 355 4497ft 109kts
24-Sep-20 13:29 35.113598 -118.867405 359 4496ft 132kts
24-Sep-20 13:30 35.151345 -118.868732 357 4417ft 140kts
24-Sep-20 13:31 35.185745 -118.869600 358 4471ft 118kts
24-Sep-20 13:32 35.220605 -118.870299 357 4486ft 128kts
24-Sep-20 13:33 35.256466 -118.873383 356 4529ft 128kts
24-Sep-20 13:34 35.286896 -118.882354 313 3727ft 91kts
24-Sep-20 13:35 35.307494 -118.909987 319 2978ft 109kts
24-Sep-20 13:36 35.329533 -118.934008 326 2296ft 102kts
24-Sep-20 13:37 35.352257 -118.954830 312 1602ft 104kts
24-Sep-20 13:38 35.373678 -118.988109 322 1758ft 131kts
24-Sep-20 13:39 35.399379 -119.018721 318 1246ft 121kts
24-Sep-20 13:40 35.420945 -119.044288 317 695ft 98kts
24-Sep-20 13:41 35.434548 -119.060152 23 510ft 12kts
24-Sep-20 13:42 35.436114 -119.056690 136 510ft 17kts
24-Sep-20 13:43 35.435214 -119.053991 127 510ft 0kts
24-Sep-20 13:44 35.435214 -119.053991 127 510ft 0kts
24-Sep-20 13:45 35.435214 -119.053991 127 510ft 0kts
24-Sep-20 13:46 35.435214 -119.053991 127 510ft 0kts
24-Sep-20 13:47 35.435214 -119.053991 127 510ft 0kts
24-Sep-20 13:48 35.435214 -119.053991 127 510ft 0kts
24-Sep-20 13:49 35.435214 -119.053991 127 510ft 0kts
24-Sep-20 13:51 35.435214 -119.053991 127 510ft 0kts
24-Sep-20 13:52 35.435214 -119.053991 127 510ft 0kts
24-Sep-20 13:53 35.435214 -119.053991 127 510ft 0kts
24-Sep-20 13:54 35.435214 -119.053991 127 510ft 0kts
24-Sep-20 13:55 35.435214 -119.053991 127 510ft 0kts
24-Sep-20 13:56 35.435214 -119.053991 127 510ft 0kts

Navigation Log

Ident Type
Flight plan parsing failed, navigation log unavailable